createdAt,value
2023-05-02T00:00:53.182Z,7.93
2023-05-02T00:03:58.172Z,7.86
2023-05-02T00:05:30.505Z,7.93
2023-05-02T00:07:03.879Z,7.93
2023-05-02T00:08:36.023Z,7.90
2023-05-02T00:10:08.727Z,7.90
2023-05-02T00:11:40.968Z,7.86
2023-05-02T00:13:13.044Z,7.79
2023-05-02T00:14:45.063Z,7.73
2023-05-02T00:16:18.648Z,7.67
2023-05-02T00:17:50.796Z,7.65
2023-05-02T00:19:22.950Z,7.62
2023-05-02T00:20:56.356Z,7.59
2023-05-02T00:22:28.745Z,7.69
2023-05-02T00:24:00.986Z,7.66
2023-05-02T00:25:33.128Z,7.61
2023-05-02T00:27:05.367Z,7.59
2023-05-02T00:28:37.467Z,7.57
2023-05-02T00:30:09.903Z,7.58
2023-05-02T00:31:42.273Z,7.54
2023-05-02T00:33:15.370Z,7.49
2023-05-02T00:34:47.502Z,7.44
2023-05-02T00:36:20.618Z,7.42
2023-05-02T00:37:52.792Z,7.40
2023-05-02T00:39:25.171Z,7.40
2023-05-02T00:40:57.366Z,7.38
2023-05-02T00:42:31.990Z,7.40
2023-05-02T00:44:04.099Z,7.40
2023-05-02T00:45:36.192Z,7.40
2023-05-02T00:47:08.285Z,7.39
2023-05-02T00:48:40.365Z,7.36
2023-05-02T00:50:12.562Z,7.31
2023-05-02T00:51:44.929Z,7.31
2023-05-02T00:53:17.068Z,7.28
2023-05-02T00:54:49.285Z,7.28
2023-05-02T00:56:22.072Z,7.25
2023-05-02T00:57:54.730Z,7.29
2023-05-02T00:59:27.547Z,7.31
2023-05-02T01:01:15.368Z,7.32
2023-05-02T01:03:06.200Z,7.27
2023-05-02T01:05:08.522Z,7.23
2023-05-02T01:06:54.792Z,7.17
2023-05-02T01:08:36.378Z,7.12
2023-05-02T01:10:29.975Z,7.03
2023-05-02T01:12:20.860Z,6.99
2023-05-02T01:13:55.888Z,6.94
2023-05-02T01:15:28.088Z,6.93
2023-05-02T01:17:04.861Z,6.94
2023-05-02T01:18:39.023Z,6.92
2023-05-02T01:20:15.352Z,6.88
2023-05-02T01:21:48.345Z,6.83
2023-05-02T01:23:28.524Z,6.80
2023-05-02T01:25:28.491Z,6.79
2023-05-02T01:27:24.828Z,6.75
2023-05-02T01:29:01.545Z,6.67
2023-05-02T01:30:35.246Z,6.67
2023-05-02T01:32:08.919Z,6.67
2023-05-02T01:33:41.056Z,6.63
2023-05-02T01:35:15.927Z,6.70
2023-05-02T01:36:49.454Z,6.73
2023-05-02T01:38:21.488Z,6.87
2023-05-02T01:39:56.717Z,6.90
2023-05-02T01:41:31.861Z,6.89
2023-05-02T01:43:06.362Z,6.86
2023-05-02T01:44:40.139Z,6.77
2023-05-02T01:46:14.798Z,6.73
2023-05-02T01:47:47.490Z,6.65
2023-05-02T01:49:20.020Z,6.62
2023-05-02T01:50:52.967Z,6.62
2023-05-02T01:52:25.994Z,6.59
2023-05-02T01:54:01.117Z,6.55
2023-05-02T01:55:36.117Z,6.51
2023-05-02T01:57:09.745Z,6.43
2023-05-02T01:58:41.880Z,6.43
2023-05-02T02:00:14.690Z,6.47
2023-05-02T02:01:47.288Z,6.45
2023-05-02T02:03:19.875Z,6.44
2023-05-02T02:04:52.808Z,6.43
2023-05-02T02:07:56.792Z,6.43
2023-05-02T02:09:28.925Z,6.43
2023-05-02T02:11:05.055Z,6.42
2023-05-02T02:12:45.829Z,6.41
2023-05-02T02:14:20.796Z,6.41
2023-05-02T02:15:54.559Z,6.45
2023-05-02T02:17:30.300Z,6.46
2023-05-02T02:19:08.890Z,6.45
2023-05-02T02:20:44.051Z,6.39
2023-05-02T02:22:16.666Z,6.38
2023-05-02T02:23:49.720Z,6.42
2023-05-02T02:25:22.021Z,6.36
2023-05-02T02:26:54.071Z,6.33
2023-05-02T02:28:26.160Z,6.30
2023-05-02T02:29:58.658Z,6.25
2023-05-02T02:31:35.061Z,6.30
2023-05-02T02:33:07.203Z,6.27
2023-05-02T02:34:39.356Z,6.28
2023-05-02T02:36:41.176Z,6.36
2023-05-02T02:38:38.760Z,6.34
2023-05-02T02:40:30.163Z,6.33
2023-05-02T02:42:14.256Z,6.28
2023-05-02T02:44:11.602Z,6.24
2023-05-02T02:45:53.788Z,6.20
2023-05-02T02:47:41.403Z,6.21
2023-05-02T02:49:32.059Z,6.15
2023-05-02T02:51:13.044Z,6.16
2023-05-02T02:52:45.188Z,6.15
2023-05-02T02:54:27.566Z,6.19
2023-05-02T02:56:36.456Z,6.19
2023-05-02T02:58:22.579Z,6.19
2023-05-02T03:00:11.189Z,6.17
2023-05-02T03:01:50.463Z,6.15
2023-05-02T03:03:23.695Z,6.18
2023-05-02T03:06:30.021Z,6.12
2023-05-02T03:08:02.259Z,6.22
2023-05-02T03:09:45.057Z,6.29
2023-05-02T03:11:17.440Z,6.26
2023-05-02T03:12:49.634Z,6.24
2023-05-02T03:14:21.847Z,6.30
2023-05-02T03:15:54.336Z,6.31
2023-05-02T03:17:26.708Z,6.27
2023-05-02T03:18:59.041Z,6.20
2023-05-02T03:20:31.145Z,6.16
2023-05-02T03:22:03.803Z,6.11
2023-05-02T03:23:36.078Z,6.03
2023-05-02T03:25:09.480Z,6.06
2023-05-02T03:26:41.568Z,6.14
2023-05-02T03:28:14.574Z,6.08
2023-05-02T03:29:46.644Z,6.04
2023-05-02T03:31:18.899Z,6.01
2023-05-02T03:32:51.220Z,6.01
2023-05-02T03:34:23.484Z,5.95
2023-05-02T03:35:55.589Z,5.90
2023-05-02T03:37:27.734Z,5.87
2023-05-02T03:38:59.872Z,5.86
2023-05-02T03:40:31.902Z,5.96
2023-05-02T03:42:04.098Z,6.02
2023-05-02T03:43:36.236Z,6.03
2023-05-02T03:45:08.833Z,6.01
2023-05-02T03:46:40.917Z,5.97
2023-05-02T03:48:13.132Z,5.99
2023-05-02T03:49:45.243Z,5.98
2023-05-02T03:51:17.741Z,6.00
2023-05-02T03:52:49.852Z,5.97
2023-05-02T03:54:21.930Z,5.96
2023-05-02T03:55:54.767Z,5.98
2023-05-02T03:57:26.913Z,5.98
2023-05-02T03:59:01.826Z,5.99
2023-05-02T04:00:33.975Z,6.04
2023-05-02T04:02:06.277Z,6.06
2023-05-02T04:03:38.634Z,6.12
2023-05-02T04:05:10.915Z,6.14
2023-05-02T04:06:43.233Z,6.19
2023-05-02T04:08:15.389Z,6.22
2023-05-02T04:09:47.554Z,6.26
2023-05-02T04:11:19.696Z,6.31
2023-05-02T04:12:51.812Z,6.33
2023-05-02T04:14:23.919Z,6.39
2023-05-02T04:15:56.961Z,6.47
2023-05-02T04:17:29.246Z,6.56
2023-05-02T04:19:01.392Z,6.63
2023-05-02T04:20:33.660Z,6.69
2023-05-02T04:22:05.880Z,6.78
2023-05-02T04:23:38.204Z,6.87
2023-05-02T04:25:10.344Z,6.94
2023-05-02T04:26:42.486Z,7.01
2023-05-02T04:28:14.663Z,7.09
2023-05-02T04:29:50.542Z,7.14
2023-05-02T04:31:22.763Z,7.14
2023-05-02T04:32:55.309Z,7.20
2023-05-02T04:34:28.977Z,7.24
2023-05-02T04:36:01.735Z,7.35
2023-05-02T04:37:33.783Z,7.44
2023-05-02T04:39:08.216Z,7.57
2023-05-02T04:40:40.529Z,7.66
2023-05-02T04:42:12.723Z,7.79
2023-05-02T04:43:45.103Z,7.91
2023-05-02T04:45:17.298Z,8.04
2023-05-02T04:46:49.503Z,8.17
2023-05-02T04:48:22.451Z,8.30
2023-05-02T04:49:54.576Z,8.45
2023-05-02T04:51:28.366Z,8.58
2023-05-02T04:53:00.433Z,8.71
2023-05-02T04:54:36.685Z,8.87
2023-05-02T04:56:08.936Z,8.99
2023-05-02T04:57:41.064Z,9.11
2023-05-02T04:59:13.086Z,9.23
2023-05-02T05:00:45.265Z,9.33
2023-05-02T05:02:17.517Z,9.43
2023-05-02T05:03:49.748Z,9.55
2023-05-02T05:05:22.324Z,9.62
2023-05-02T05:06:55.295Z,9.73
2023-05-02T05:08:27.947Z,9.78
2023-05-02T05:10:00.273Z,9.89
2023-05-02T05:11:32.734Z,9.98
2023-05-02T05:13:05.135Z,10.09
2023-05-02T05:14:37.332Z,10.22
2023-05-02T05:16:09.702Z,10.38
2023-05-02T05:17:42.707Z,10.47
2023-05-02T05:19:17.105Z,10.57
2023-05-02T05:20:49.261Z,10.65
2023-05-02T05:22:22.887Z,10.76
2023-05-02T05:23:55.057Z,10.86
2023-05-02T05:25:28.076Z,10.93
2023-05-02T05:27:00.307Z,10.98
2023-05-02T05:28:32.340Z,11.06
2023-05-02T05:30:05.801Z,11.16
2023-05-02T05:31:37.858Z,11.28
2023-05-02T05:33:10.031Z,11.33
2023-05-02T05:34:42.337Z,11.41
2023-05-02T05:36:15.463Z,11.50
2023-05-02T05:37:47.565Z,11.58
2023-05-02T05:39:19.631Z,11.66
2023-05-02T05:40:51.738Z,11.74
2023-05-02T05:42:23.826Z,11.85
2023-05-02T05:43:56.797Z,11.94
2023-05-02T05:45:28.923Z,12.04
2023-05-02T05:47:01.011Z,12.16
2023-05-02T05:48:33.332Z,12.24
2023-05-02T05:50:05.909Z,12.34
2023-05-02T05:51:37.971Z,12.42
2023-05-02T05:53:10.117Z,12.51
2023-05-02T05:54:42.222Z,12.61
2023-05-02T05:56:14.723Z,12.71
2023-05-02T05:57:46.938Z,12.82
2023-05-02T05:59:19.175Z,12.94
2023-05-02T06:00:51.317Z,13.09
2023-05-02T06:02:23.674Z,13.21
2023-05-02T06:03:56.074Z,13.28
2023-05-02T06:05:28.926Z,13.40
2023-05-02T06:07:01.140Z,13.48
2023-05-02T06:08:33.403Z,13.57
2023-05-02T06:10:05.988Z,13.64
2023-05-02T06:11:38.681Z,13.72
2023-05-02T06:13:10.744Z,13.79
2023-05-02T06:14:42.832Z,13.86
2023-05-02T06:16:15.018Z,13.92
2023-05-02T06:17:47.208Z,13.97
2023-05-02T06:19:19.421Z,14.03
2023-05-02T06:20:51.640Z,14.13
2023-05-02T06:22:23.800Z,14.21
2023-05-02T06:23:56.034Z,14.27
2023-05-02T06:25:28.120Z,14.35
2023-05-02T06:27:00.628Z,14.43
2023-05-02T06:28:32.876Z,14.53
2023-05-02T06:30:05.653Z,14.62
2023-05-02T06:31:37.810Z,14.67
2023-05-02T06:33:10.102Z,14.75
2023-05-02T06:34:42.332Z,14.81
2023-05-02T06:36:14.471Z,14.89
2023-05-02T06:37:46.650Z,14.95
2023-05-02T06:39:18.704Z,15.01
2023-05-02T06:40:51.174Z,15.10
2023-05-02T06:42:23.325Z,15.16
2023-05-02T06:43:55.414Z,15.27
2023-05-02T06:45:28.060Z,15.35
2023-05-02T06:47:00.238Z,15.46
2023-05-02T06:48:32.418Z,15.52
2023-05-02T06:50:04.679Z,15.59
2023-05-02T06:51:36.781Z,15.67
2023-05-02T06:53:08.923Z,15.74
2023-05-02T06:54:42.790Z,15.82
2023-05-02T06:56:15.029Z,15.91
2023-05-02T06:57:47.447Z,15.97
2023-05-02T06:59:19.562Z,16.06
2023-05-02T07:00:51.769Z,16.16
2023-05-02T07:02:24.139Z,16.25
2023-05-02T07:03:56.341Z,16.32
2023-05-02T07:05:29.608Z,16.42
2023-05-02T07:07:01.790Z,16.48
2023-05-02T07:08:33.969Z,16.52
2023-05-02T07:10:06.529Z,16.65
2023-05-02T07:11:38.589Z,16.75
2023-05-02T07:13:10.701Z,16.84
2023-05-02T07:14:42.896Z,16.91
2023-05-02T07:16:15.337Z,16.97
2023-05-02T07:17:48.243Z,17.05
2023-05-02T07:19:20.381Z,17.11
2023-05-02T07:20:52.570Z,17.16
2023-05-02T07:22:24.757Z,17.26
2023-05-02T07:23:58.031Z,17.38
2023-05-02T07:25:30.201Z,17.45
2023-05-02T07:27:03.713Z,17.52
2023-05-02T07:28:35.915Z,17.58
2023-05-02T07:30:08.860Z,17.68
2023-05-02T07:31:41.211Z,17.76
2023-05-02T07:33:15.193Z,17.85
2023-05-02T07:34:47.406Z,17.94
2023-05-02T07:36:19.500Z,18.02
2023-05-02T07:37:51.666Z,18.11
2023-05-02T07:39:24.822Z,18.14
2023-05-02T07:41:00.512Z,18.23
2023-05-02T07:42:35.412Z,18.31
2023-05-02T07:44:07.747Z,18.34
2023-05-02T07:45:40.046Z,18.50
2023-05-02T07:47:12.179Z,18.60
2023-05-02T07:48:44.406Z,18.68
2023-05-02T07:50:16.612Z,18.73
2023-05-02T07:51:48.806Z,18.79
2023-05-02T07:53:20.913Z,18.88
2023-05-02T07:54:53.156Z,18.95
2023-05-02T07:56:26.262Z,19.06
2023-05-02T07:57:58.449Z,19.15
2023-05-02T07:59:31.907Z,19.25
2023-05-02T08:01:04.411Z,19.30
2023-05-02T08:02:37.600Z,19.33
2023-05-02T08:04:13.590Z,19.44
2023-05-02T08:05:46.029Z,19.48
2023-05-02T08:07:18.286Z,19.57
2023-05-02T08:08:50.420Z,19.65
2023-05-02T08:10:23.771Z,19.70
2023-05-02T08:11:56.102Z,19.76
2023-05-02T08:13:28.843Z,19.83
2023-05-02T08:15:05.645Z,20.00
2023-05-02T08:16:37.844Z,20.12
2023-05-02T08:18:10.090Z,20.11
2023-05-02T08:19:42.336Z,20.09
2023-05-02T08:21:14.598Z,20.11
2023-05-02T08:22:46.766Z,20.16
2023-05-02T08:24:18.861Z,20.20
2023-05-02T08:25:50.991Z,20.31
2023-05-02T08:27:23.068Z,20.36
2023-05-02T08:28:55.957Z,20.34
2023-05-02T08:30:28.131Z,20.34
2023-05-02T08:32:00.424Z,20.32
2023-05-02T08:33:32.759Z,20.33
2023-05-02T08:35:05.142Z,20.39
2023-05-02T08:36:37.839Z,20.42
2023-05-02T08:38:10.234Z,20.46
2023-05-02T08:39:42.425Z,20.46
2023-05-02T08:41:17.473Z,20.48
2023-05-02T08:42:49.648Z,20.45
2023-05-02T08:44:21.933Z,20.57
2023-05-02T08:45:54.985Z,20.75
2023-05-02T08:47:28.030Z,20.88
2023-05-02T08:49:00.692Z,20.90
2023-05-02T08:50:36.550Z,20.94
2023-05-02T08:52:11.458Z,20.91
2023-05-02T08:53:44.615Z,20.85
2023-05-02T08:55:16.659Z,20.93
2023-05-02T08:56:48.861Z,20.92
2023-05-02T08:58:20.974Z,20.94
2023-05-02T08:59:53.320Z,21.01
2023-05-02T09:01:31.202Z,21.15
2023-05-02T09:03:27.901Z,21.29
2023-05-02T09:05:04.470Z,21.42
2023-05-02T09:06:37.050Z,21.48
2023-05-02T09:08:09.662Z,21.57
2023-05-02T09:09:41.763Z,21.63
2023-05-02T09:11:15.210Z,21.71
2023-05-02T09:12:47.606Z,21.72
2023-05-02T09:14:19.840Z,21.78
2023-05-02T09:16:00.180Z,21.86
2023-05-02T09:17:40.825Z,21.91
2023-05-02T09:19:25.126Z,22.00
2023-05-02T09:22:52.695Z,22.17
2023-05-02T09:24:25.819Z,22.20
2023-05-02T09:25:57.893Z,22.25
2023-05-02T09:27:30.004Z,22.35
2023-05-02T09:29:04.331Z,22.40
2023-05-02T09:30:36.765Z,22.43
2023-05-02T09:32:09.067Z,22.49
2023-05-02T09:33:41.934Z,22.52
2023-05-02T09:35:14.796Z,22.47
2023-05-02T09:36:51.700Z,22.50
2023-05-02T09:38:23.794Z,22.54
2023-05-02T09:40:16.335Z,22.71
2023-05-02T09:41:49.378Z,22.70
2023-05-02T09:43:21.492Z,22.71
2023-05-02T09:44:53.948Z,22.70
2023-05-02T09:46:26.208Z,22.67
2023-05-02T09:48:02.709Z,22.71
2023-05-02T09:49:45.889Z,22.77
2023-05-02T09:51:18.804Z,22.84
2023-05-02T09:53:04.237Z,22.93
2023-05-02T09:54:39.280Z,22.95
2023-05-02T09:56:11.771Z,23.00
2023-05-02T09:57:44.038Z,22.99
2023-05-02T09:59:16.979Z,22.98
2023-05-02T10:00:51.637Z,22.99
2023-05-02T10:02:25.364Z,23.01
2023-05-02T10:03:57.629Z,23.01
2023-05-02T10:05:30.309Z,22.99
2023-05-02T10:07:03.580Z,22.99
2023-05-02T10:08:36.102Z,23.05
2023-05-02T10:10:09.908Z,23.11
2023-05-02T10:11:45.166Z,23.13
2023-05-02T10:13:24.792Z,23.10
2023-05-02T10:15:01.614Z,23.18
2023-05-02T10:16:35.782Z,23.24
2023-05-02T10:18:16.362Z,23.18
2023-05-02T10:20:08.849Z,23.27
2023-05-02T10:21:41.064Z,23.26
2023-05-02T10:23:13.684Z,23.27
2023-05-02T10:24:47.526Z,23.29
2023-05-02T10:26:22.399Z,23.36
2023-05-02T10:27:57.821Z,23.43
2023-05-02T10:29:30.585Z,23.36
2023-05-02T10:31:03.607Z,23.42
2023-05-02T10:32:37.383Z,23.43
2023-05-02T10:34:12.238Z,23.45
2023-05-02T10:35:47.690Z,23.44
2023-05-02T10:37:20.366Z,23.48
2023-05-02T10:38:53.120Z,23.49
2023-05-02T10:40:25.315Z,23.50
2023-05-02T10:41:59.036Z,23.56
2023-05-02T10:43:35.785Z,23.62
2023-05-02T10:45:30.350Z,23.65
2023-05-02T10:47:03.724Z,23.70
2023-05-02T10:48:36.123Z,23.64
2023-05-02T10:50:09.048Z,23.64
2023-05-02T10:51:42.860Z,23.68
2023-05-02T10:53:36.917Z,23.75
2023-05-02T10:57:08.985Z,23.76
2023-05-02T10:58:42.315Z,23.78
2023-05-02T11:00:23.786Z,23.81
2023-05-02T11:01:58.837Z,23.83
2023-05-02T11:03:58.973Z,23.90
2023-05-02T11:05:31.194Z,23.89
2023-05-02T11:07:06.213Z,23.92
2023-05-02T11:08:38.511Z,23.92
2023-05-02T11:10:20.828Z,23.99
2023-05-02T11:11:54.651Z,24.01
2023-05-02T11:13:51.756Z,24.22
2023-05-02T11:15:29.699Z,24.20
2023-05-02T11:17:01.863Z,24.11
2023-05-02T11:19:01.493Z,24.17
2023-05-02T11:20:37.695Z,24.23
2023-05-02T11:22:19.460Z,24.29
2023-05-02T11:23:51.521Z,24.28
2023-05-02T11:25:37.833Z,24.27
2023-05-02T11:27:31.589Z,24.27
2023-05-02T11:29:03.703Z,24.28
2023-05-02T11:30:44.357Z,24.34
2023-05-02T11:32:16.540Z,24.35
2023-05-02T11:33:59.440Z,24.41
2023-05-02T11:35:32.354Z,24.44
2023-05-02T11:37:15.245Z,24.51
2023-05-02T11:38:47.386Z,24.54
2023-05-02T11:40:19.784Z,24.53
2023-05-02T11:41:52.027Z,24.43
2023-05-02T11:43:26.854Z,24.38
2023-05-02T11:45:01.590Z,24.48
2023-05-02T11:46:34.438Z,24.51
2023-05-02T11:48:07.759Z,24.52
2023-05-02T11:49:40.123Z,24.53
2023-05-02T11:51:12.268Z,24.57
2023-05-02T11:52:45.427Z,24.68
2023-05-02T11:54:20.631Z,24.78
2023-05-02T11:55:57.306Z,24.75
2023-05-02T11:57:29.470Z,24.72
2023-05-02T11:59:03.633Z,24.74
2023-05-02T12:00:37.149Z,24.74
2023-05-02T12:02:09.617Z,24.74
2023-05-02T12:03:42.082Z,24.77
2023-05-02T12:05:15.323Z,24.81
2023-05-02T12:06:57.304Z,24.92
2023-05-02T12:08:30.293Z,24.89
2023-05-02T12:10:02.391Z,24.89
2023-05-02T12:11:35.304Z,24.93
2023-05-02T12:13:08.834Z,24.96
2023-05-02T12:14:42.087Z,24.95
2023-05-02T12:16:14.719Z,24.97
2023-05-02T12:17:51.671Z,25.00
2023-05-02T12:19:26.837Z,24.97
2023-05-02T12:20:59.139Z,25.03
2023-05-02T12:22:31.675Z,25.01
2023-05-02T12:24:04.286Z,24.99
2023-05-02T12:25:43.161Z,25.05
2023-05-02T12:27:16.077Z,25.07
2023-05-02T12:28:55.166Z,25.12
2023-05-02T12:30:31.440Z,25.17
2023-05-02T12:32:03.916Z,25.14
2023-05-02T12:33:48.547Z,25.22
2023-05-02T12:35:23.552Z,25.17
2023-05-02T12:36:55.637Z,25.12
2023-05-02T12:38:27.801Z,25.10
2023-05-02T12:40:00.154Z,25.07
2023-05-02T12:41:36.342Z,25.17
2023-05-02T12:43:11.037Z,25.19
2023-05-02T12:44:45.159Z,25.20
2023-05-02T12:46:17.859Z,25.14
2023-05-02T12:47:50.026Z,25.10
2023-05-02T12:49:22.197Z,25.14
2023-05-02T12:50:55.797Z,25.19
2023-05-02T12:52:51.151Z,25.28
2023-05-02T12:54:23.340Z,25.22
2023-05-02T12:56:05.198Z,25.26
2023-05-02T12:57:37.381Z,25.23
2023-05-02T12:59:10.577Z,25.21
2023-05-02T13:00:44.780Z,25.31
2023-05-02T13:02:17.738Z,25.31
2023-05-02T13:04:06.240Z,25.31
2023-05-02T13:05:38.590Z,25.31
2023-05-02T13:07:11.349Z,25.37
2023-05-02T13:08:43.428Z,25.40
2023-05-02T13:10:18.342Z,25.46
2023-05-02T13:11:50.688Z,25.45
2023-05-02T13:13:22.952Z,25.40
2023-05-02T13:14:55.164Z,25.33
2023-05-02T13:16:27.572Z,25.19
2023-05-02T13:18:00.047Z,25.11
2023-05-02T13:19:32.339Z,25.12
2023-05-02T13:21:05.444Z,25.08
2023-05-02T13:22:38.016Z,25.14
2023-05-02T13:24:10.111Z,25.00
2023-05-02T13:25:42.500Z,24.90
2023-05-02T13:27:14.779Z,24.84
2023-05-02T13:28:46.837Z,24.79
2023-05-02T13:30:19.120Z,24.83
2023-05-02T13:31:51.384Z,24.77
2023-05-02T13:33:30.950Z,24.73
2023-05-02T13:35:04.312Z,24.60
2023-05-02T13:36:41.045Z,24.56
2023-05-02T13:38:13.288Z,24.54
2023-05-02T13:39:45.448Z,24.47
2023-05-02T13:41:17.607Z,24.43
2023-05-02T13:42:49.757Z,24.42
2023-05-02T13:44:21.996Z,24.43
2023-05-02T13:45:54.057Z,24.40
2023-05-02T13:47:26.956Z,24.42
2023-05-02T13:48:59.079Z,24.43
2023-05-02T13:50:31.253Z,24.47
2023-05-02T13:52:03.388Z,24.51
2023-05-02T13:53:36.102Z,24.49
2023-05-02T13:55:08.631Z,24.50
2023-05-02T13:56:40.835Z,24.51
2023-05-02T13:58:12.899Z,24.52
2023-05-02T13:59:47.717Z,24.52
2023-05-02T14:01:19.973Z,24.54
2023-05-02T14:02:53.295Z,24.53
2023-05-02T14:04:25.717Z,24.58
2023-05-02T14:05:57.862Z,24.69
2023-05-02T14:07:30.068Z,24.69
2023-05-02T14:09:02.309Z,24.69
2023-05-02T14:10:34.543Z,24.71
2023-05-02T14:12:06.933Z,24.73
2023-05-02T14:13:38.998Z,24.74
2023-05-02T14:15:11.741Z,24.78
2023-05-02T14:16:44.053Z,24.81
2023-05-02T14:18:17.286Z,24.84
2023-05-02T14:19:49.472Z,24.98
2023-05-02T14:21:21.746Z,25.00
2023-05-02T14:22:53.916Z,25.03
2023-05-02T14:24:26.096Z,25.01
2023-05-02T14:25:58.591Z,25.04
2023-05-02T14:27:30.835Z,25.02
2023-05-02T14:29:02.964Z,25.03
2023-05-02T14:30:35.255Z,24.98
2023-05-02T14:32:07.363Z,24.98
2023-05-02T14:33:39.674Z,24.98
2023-05-02T14:35:11.883Z,25.00
2023-05-02T14:36:44.012Z,25.01
2023-05-02T14:38:16.031Z,24.97
2023-05-02T14:39:52.146Z,24.96
2023-05-02T14:41:27.253Z,24.97
2023-05-02T14:42:59.448Z,24.96
2023-05-02T14:44:31.737Z,25.00
2023-05-02T14:46:04.422Z,24.97
2023-05-02T14:47:36.906Z,24.83
2023-05-02T14:49:09.386Z,24.87
2023-05-02T14:50:41.625Z,24.94
2023-05-02T14:52:13.715Z,24.97
2023-05-02T14:53:48.834Z,25.05
2023-05-02T14:55:21.034Z,25.03
2023-05-02T14:56:57.001Z,25.00
2023-05-02T14:58:29.434Z,24.98
2023-05-02T15:00:01.815Z,24.95
2023-05-02T15:01:34.277Z,24.95
2023-05-02T15:03:08.222Z,24.96
2023-05-02T15:04:40.681Z,24.86
2023-05-02T15:06:13.153Z,24.84
2023-05-02T15:07:45.418Z,24.77
2023-05-02T15:09:18.468Z,24.68
2023-05-02T15:10:52.844Z,24.68
2023-05-02T15:12:26.643Z,24.59
2023-05-02T15:13:59.437Z,24.53
2023-05-02T15:15:31.812Z,24.48
2023-05-02T15:17:04.037Z,24.40
2023-05-02T15:18:36.369Z,24.32
2023-05-02T15:20:09.205Z,24.33
2023-05-02T15:21:41.468Z,24.28
2023-05-02T15:23:13.745Z,24.29
2023-05-02T15:24:45.917Z,24.27
2023-05-02T15:26:18.135Z,24.30
2023-05-02T15:27:50.721Z,24.27
2023-05-02T15:29:22.808Z,24.23
2023-05-02T15:30:54.891Z,24.23
2023-05-02T15:32:27.125Z,24.17
2023-05-02T15:33:59.336Z,24.14
2023-05-02T15:35:31.947Z,24.05
2023-05-02T15:38:39.800Z,24.00
2023-05-02T15:40:12.537Z,23.99
2023-05-02T15:41:48.143Z,23.97
2023-05-02T15:43:20.266Z,23.94
2023-05-02T15:44:54.444Z,23.87
2023-05-02T15:46:27.114Z,23.72
2023-05-02T15:47:59.307Z,23.69
2023-05-02T15:49:33.793Z,23.66
2023-05-02T15:51:06.968Z,23.64
2023-05-02T15:52:39.081Z,23.59
2023-05-02T15:54:11.265Z,23.58
2023-05-02T15:55:46.268Z,23.60
2023-05-02T15:57:19.647Z,23.55
2023-05-02T15:58:51.686Z,23.51
2023-05-02T16:00:23.888Z,23.42
2023-05-02T16:01:56.354Z,23.33
2023-05-02T16:03:28.710Z,23.27
2023-05-02T16:05:00.873Z,23.24
2023-05-02T16:06:34.489Z,23.17
2023-05-02T16:08:06.732Z,23.03
2023-05-02T16:09:40.080Z,22.95
2023-05-02T16:11:12.196Z,22.94
2023-05-02T16:12:44.381Z,22.86
2023-05-02T16:14:16.751Z,22.77
2023-05-02T16:15:48.960Z,22.71
2023-05-02T16:17:21.404Z,22.70
2023-05-02T16:18:53.656Z,22.66
2023-05-02T16:20:26.265Z,22.60
2023-05-02T16:21:58.505Z,22.56
2023-05-02T16:23:30.742Z,22.54
2023-05-02T16:25:03.055Z,22.53
2023-05-02T16:26:35.590Z,22.53
2023-05-02T16:28:07.886Z,22.49
2023-05-02T16:29:40.267Z,22.47
2023-05-02T16:31:14.683Z,22.43
2023-05-02T16:32:46.818Z,22.39
2023-05-02T16:34:19.037Z,22.34
2023-05-02T16:36:01.400Z,22.33
2023-05-02T16:37:36.853Z,22.28
2023-05-02T16:39:10.914Z,22.20
2023-05-02T16:40:43.128Z,22.12
2023-05-02T16:42:15.379Z,22.05
2023-05-02T16:43:48.711Z,21.97
2023-05-02T16:45:21.322Z,21.89
2023-05-02T16:46:53.655Z,21.80
2023-05-02T16:48:25.744Z,21.71
2023-05-02T16:49:58.741Z,21.66
2023-05-02T16:51:32.231Z,21.54
2023-05-02T16:53:04.315Z,21.47
2023-05-02T16:54:36.453Z,21.36
2023-05-02T16:56:09.181Z,21.23
2023-05-02T16:57:41.759Z,21.11
2023-05-02T16:59:13.885Z,21.05
2023-05-02T17:00:46.459Z,20.95
2023-05-02T17:02:22.502Z,20.89
2023-05-02T17:03:54.742Z,20.76
2023-05-02T17:05:27.140Z,20.62
2023-05-02T17:06:59.208Z,20.42
2023-05-02T17:08:31.322Z,20.21
2023-05-02T17:10:04.826Z,20.07
2023-05-02T17:11:37.280Z,19.93
2023-05-02T17:13:09.383Z,19.84
2023-05-02T17:14:43.122Z,19.78
2023-05-02T17:16:15.855Z,19.72
2023-05-02T17:17:47.992Z,19.64
2023-05-02T17:19:20.351Z,19.61
2023-05-02T17:20:53.226Z,19.55
2023-05-02T17:22:25.525Z,19.48
2023-05-02T17:23:57.844Z,19.32
2023-05-02T17:25:31.031Z,19.17
2023-05-02T17:27:03.273Z,19.06
2023-05-02T17:28:35.588Z,19.03
2023-05-02T17:30:08.476Z,19.03
2023-05-02T17:31:40.730Z,19.04
2023-05-02T17:33:13.219Z,18.93
2023-05-02T17:34:47.539Z,18.73
2023-05-02T17:36:19.619Z,18.44
2023-05-02T17:37:51.775Z,18.17
2023-05-02T17:39:23.967Z,17.99
2023-05-02T17:40:56.104Z,17.86
2023-05-02T17:42:28.308Z,17.71
2023-05-02T17:44:00.503Z,17.59
2023-05-02T17:47:03.775Z,17.39
2023-05-02T17:48:39.913Z,17.26
2023-05-02T17:50:12.112Z,17.17
2023-05-02T17:51:44.262Z,17.12
2023-05-02T17:53:16.385Z,17.11
2023-05-02T17:54:48.456Z,17.08
2023-05-02T17:56:20.716Z,17.10
2023-05-02T17:57:52.811Z,17.06
2023-05-02T17:59:24.973Z,17.06
2023-05-02T18:00:57.323Z,17.07
2023-05-02T18:02:29.591Z,17.05
2023-05-02T18:04:04.384Z,17.02
2023-05-02T18:05:40.453Z,17.03
2023-05-02T18:07:12.602Z,16.97
2023-05-02T18:08:45.363Z,16.93
2023-05-02T18:10:17.539Z,16.93
2023-05-02T18:11:49.645Z,16.95
2023-05-02T18:13:21.791Z,17.02
2023-05-02T18:16:29.051Z,17.14
2023-05-02T18:18:01.259Z,17.17
2023-05-02T18:19:34.215Z,17.31
2023-05-02T18:21:09.982Z,17.41
2023-05-02T18:22:42.648Z,17.47
2023-05-02T18:24:14.814Z,17.55
2023-05-02T18:25:47.069Z,17.62
2023-05-02T18:27:19.248Z,17.63
2023-05-02T18:28:55.937Z,17.56
2023-05-02T18:30:28.245Z,17.54
2023-05-02T18:32:00.692Z,17.46
2023-05-02T18:33:32.898Z,17.43
2023-05-02T18:35:10.725Z,17.38
2023-05-02T18:36:45.411Z,17.32
2023-05-02T18:38:17.899Z,17.30
2023-05-02T18:39:50.078Z,17.28
2023-05-02T18:41:22.776Z,17.22
2023-05-02T18:42:54.881Z,17.20
2023-05-02T18:44:27.142Z,17.22
2023-05-02T19:20:31.361Z,15.79
2023-05-02T19:22:04.161Z,15.78
2023-05-02T19:23:36.243Z,15.76
2023-05-02T19:25:09.993Z,15.74
2023-05-02T19:26:42.325Z,15.64
2023-05-02T19:28:16.133Z,15.42
2023-05-02T19:29:48.219Z,15.13
2023-05-02T19:31:20.922Z,14.88
2023-05-02T19:32:53.241Z,14.76
2023-05-02T19:34:25.411Z,14.75
2023-05-02T19:35:58.898Z,14.73
2023-05-02T19:37:31.169Z,14.72
2023-05-02T19:39:04.670Z,14.66
2023-05-02T19:40:36.807Z,14.49
2023-05-02T19:42:09.859Z,14.31
2023-05-02T19:43:42.016Z,14.24
2023-05-02T19:45:14.333Z,14.25
2023-05-02T19:46:46.561Z,14.26
2023-05-02T19:48:18.781Z,14.26
2023-05-02T19:49:51.643Z,14.23
2023-05-02T19:51:26.054Z,14.17
2023-05-02T19:53:02.089Z,14.15
2023-05-02T19:54:34.363Z,14.10
2023-05-02T19:56:09.801Z,14.04
2023-05-02T19:57:44.677Z,13.96
2023-05-02T19:59:16.810Z,13.90
2023-05-02T20:00:50.447Z,13.85
2023-05-02T20:02:22.790Z,13.83
2023-05-02T20:03:55.896Z,13.76
2023-05-02T20:05:28.106Z,13.63
2023-05-02T20:07:00.187Z,13.50
2023-05-02T20:08:32.328Z,13.45
2023-05-02T20:10:05.060Z,13.35
2023-05-02T20:11:37.485Z,13.26
2023-05-02T20:13:10.564Z,13.21
2023-05-02T20:14:42.744Z,13.21
2023-05-02T20:16:15.201Z,13.22
2023-05-02T20:17:47.945Z,13.25
2023-05-02T20:19:21.951Z,13.21
2023-05-02T20:20:54.761Z,13.14
2023-05-02T20:22:26.922Z,13.02
2023-05-02T20:23:59.066Z,12.93
2023-05-02T20:25:31.176Z,12.84
2023-05-02T20:27:03.335Z,12.73
2023-05-02T20:28:35.510Z,12.65
2023-05-02T20:30:09.126Z,12.65
2023-05-02T20:31:41.655Z,12.57
2023-05-02T20:33:16.248Z,12.45
2023-05-02T20:34:49.029Z,12.36
2023-05-02T20:36:21.383Z,12.27
2023-05-02T20:37:54.309Z,12.20
2023-05-02T20:39:26.360Z,12.14
2023-05-02T20:40:58.504Z,12.10
2023-05-02T20:42:30.629Z,12.06
2023-05-02T20:44:04.302Z,12.13
2023-05-02T20:45:36.412Z,12.11
2023-05-02T20:47:08.583Z,12.07
2023-05-02T20:48:40.674Z,12.00
2023-05-02T20:50:12.747Z,11.89
2023-05-02T20:51:44.867Z,11.80
2023-05-02T20:53:17.345Z,11.74
2023-05-02T20:54:49.828Z,11.63
2023-05-02T20:56:21.973Z,11.57
2023-05-02T20:57:54.116Z,11.55
2023-05-02T20:59:26.355Z,11.51
2023-05-02T21:00:58.709Z,11.48
2023-05-02T21:02:31.339Z,11.51
2023-05-02T21:04:04.614Z,11.46
2023-05-02T21:05:37.020Z,11.42
2023-05-02T21:07:09.155Z,11.38